Time;durP1;ratioP1;P1;durP2;ratioP2;P2;SDS_P1;SDS_P2;PMS_P1;PMS_P2;Temp;Humidity;BMP_temperature;BMP_pressure;BME280_temperature;BME280_humidity;BME280_pressure;Samples;Min_cycle;Max_cycle;Signal;HPM_P1;HPM_P2
2022/04/30 00:02:15;;;;;;;;;;;6.40;86.40;;;;;;6192919;23;19912;-80
2022/04/30 00:04:53;;;;;;;;;;;6.40;86.00;;;;;;6171619;23;20377;-80
2022/04/30 00:07:22;;;;;;;;;;;6.50;86.50;;;;;;6192957;23;20237;-80
2022/04/30 00:09:55;;;;;;;;;;;6.50;86.70;;;;;;6192845;23;20237;-79
2022/04/30 00:12:23;;;;;;;;;;;6.60;86.50;;;;;;6192755;23;19912;-80
2022/04/30 00:14:54;;;;;;;;;;;6.60;85.90;;;;;;6192621;23;19912;-80
2022/04/30 00:17:22;;;;;;;;;;;6.60;86.00;;;;;;6192136;23;20018;-80
2022/04/30 00:19:51;;;;;;;;;;;6.70;88.20;;;;;;6192775;23;19956;-81
2022/04/30 00:22:19;;;;;;;;;;;6.80;86.90;;;;;;6191722;23;19968;-80
2022/04/30 00:24:45;;;;;;;;;;;7.00;87.10;;;;;;6167747;23;20225;-81
2022/04/30 00:27:11;;;;;;;;;;;7.10;87.80;;;;;;6192611;23;19918;-81
2022/04/30 00:29:42;;;;;;;;;;;7.10;86.40;;;;;;6192933;23;19951;-80
2022/04/30 00:32:08;;;;;;;;;;;7.20;87.20;;;;;;6218899;23;19912;-81
2022/04/30 00:34:34;;;;;;;;;;;7.20;86.40;;;;;;6192490;23;19918;-80
2022/04/30 00:37:02;;;;;;;;;;;7.20;86.40;;;;;;6226280;23;19945;-81
2022/04/30 00:39:31;;;;;;;;;;;7.30;87.00;;;;;;6219758;23;19908;-81
2022/04/30 00:41:59;;;;;;;;;;;7.30;86.50;;;;;;6221114;23;19904;-81
2022/04/30 00:44:33;;;;;;;;;;;7.30;85.20;;;;;;6219954;23;19911;-81
2022/04/30 00:46:59;;;;;;;;;;;7.60;86.10;;;;;;6221108;23;19911;-81
2022/04/30 00:49:42;;;;;;;;;;;7.40;85.20;;;;;;6221203;23;19938;-81
2022/04/30 00:52:15;;;;;;;;;;;7.40;85.00;;;;;;6207567;23;19923;-81
2022/04/30 00:54:49;;;;;;;;;;;7.50;85.80;;;;;;6196490;23;20000;-80
2022/04/30 00:57:22;;;;;;;;;;;7.40;85.50;;;;;;6198305;23;19961;-81
2022/04/30 00:59:59;;;;;;;;;;;7.40;85.90;;;;;;6197874;23;19927;-81
2022/04/30 01:02:29;;;;;;;;;;;7.50;85.70;;;;;;6197550;23;19911;-81
2022/04/30 01:05:07;;;;;;;;;;;7.60;85.50;;;;;;6172670;23;19938;-80
2022/04/30 01:07:33;;;;;;;;;;;7.60;85.70;;;;;;6197325;23;19951;-80
2022/04/30 01:10:04;;;;;;;;;;;7.70;85.90;;;;;;6197729;23;19918;-80
2022/04/30 01:12:30;;;;;;;;;;;7.70;85.70;;;;;;6171851;23;20182;-81
2022/04/30 01:14:59;;;;;;;;;;;7.70;85.10;;;;;;6196597;23;19911;-81
2022/04/30 01:17:27;;;;;;;;;;;7.60;84.90;;;;;;6195619;23;19978;-80
2022/04/30 01:19:56;;;;;;;;;;;7.70;85.10;;;;;;6221226;23;19951;-81
2022/04/30 01:22:41;;;;;;;;;;;7.90;85.10;;;;;;6199681;23;19989;-80
2022/04/30 01:25:13;;;;;;;;;;;7.70;84.90;;;;;;6197311;23;19962;-80
2022/04/30 01:27:52;;;;;;;;;;;7.80;84.90;;;;;;6196306;23;19912;-80
2022/04/30 01:30:29;;;;;;;;;;;7.70;85.10;;;;;;6196423;23;19961;-80
2022/04/30 01:38:47;;;;;;;;;;;7.70;84.50;;;;;;6200820;23;19954;-81
2022/04/30 01:41:13;;;;;;;;;;;7.80;84.10;;;;;;6195946;23;19916;-81
2022/04/30 01:43:44;;;;;;;;;;;7.80;83.80;;;;;;6195818;23;19946;-80
2022/04/30 01:46:10;;;;;;;;;;;7.80;83.40;;;;;;6195345;23;19912;-80
2022/04/30 01:48:36;;;;;;;;;;;7.80;83.60;;;;;;6195465;23;19912;-81
2022/04/30 01:51:09;;;;;;;;;;;7.90;83.70;;;;;;6196567;23;19990;-81
2022/04/30 01:53:42;;;;;;;;;;;7.80;83.50;;;;;;6195594;23;19911;-80
2022/04/30 01:56:07;;;;;;;;;;;7.80;83.40;;;;;;6195410;23;19916;-80
2022/04/30 01:58:39;;;;;;;;;;;7.80;83.60;;;;;;6206969;22;19926;-80
2022/04/30 02:01:07;;;;;;;;;;;7.90;83.40;;;;;;6224078;22;19927;-80
2022/04/30 02:03:35;;;;;;;;;;;7.80;82.80;;;;;;6224330;22;19915;-80
2022/04/30 02:06:04;;;;;;;;;;;7.80;82.90;;;;;;6213314;23;19946;-81
2022/04/30 02:08:37;;;;;;;;;;;7.80;83.10;;;;;;6195451;23;19915;-81
2022/04/30 02:11:05;;;;;;;;;;;8.10;83.10;;;;;;6195795;23;19918;-80
2022/04/30 02:13:35;;;;;;;;;;;7.80;83.00;;;;;;6196138;23;19918;-80
2022/04/30 02:16:07;;;;;;;;;;;7.80;82.50;;;;;;6194888;23;19915;-81
2022/04/30 02:18:36;;;;;;;;;;;7.90;82.20;;;;;;6195017;23;19990;-80
2022/04/30 02:21:05;;;;;;;;;;;7.90;82.10;;;;;;6196208;23;20441;-80
2022/04/30 02:23:31;;;;;;;;;;;7.90;82.30;;;;;;6220717;23;20316;-80
2022/04/30 02:26:04;;;;;;;;;;;8.00;82.10;;;;;;6195265;23;19947;-80
2022/04/30 02:28:32;;;;;;;;;;;7.80;82.10;;;;;;6195915;23;19912;-80
2022/04/30 02:31:00;;;;;;;;;;;7.90;81.70;;;;;;6195609;23;20199;-81
2022/04/30 02:33:28;;;;;;;;;;;7.90;82.40;;;;;;6196204;23;20302;-81
2022/04/30 02:35:58;;;;;;;;;;;8.10;82.50;;;;;;6196980;23;19918;-80
2022/04/30 02:38:26;;;;;;;;;;;7.90;82.70;;;;;;6194891;23;20230;-80
2022/04/30 02:40:57;;;;;;;;;;;7.90;82.80;;;;;;6196314;23;20045;-81
2022/04/30 02:43:26;;;;;;;;;;;7.80;83.10;;;;;;6195268;23;20323;-81
2022/04/30 02:45:52;;;;;;;;;;;7.80;83.40;;;;;;6194814;23;19915;-80
2022/04/30 02:48:23;;;;;;;;;;;7.90;82.30;;;;;;6195537;23;19943;-81
2022/04/30 02:50:58;;;;;;;;;;;7.90;82.60;;;;;;6220233;23;19983;-80
2022/04/30 02:53:24;;;;;;;;;;;7.90;82.20;;;;;;6195051;23;20207;-81
2022/04/30 02:55:59;;;;;;;;;;;7.50;82.20;;;;;;6195643;23;19919;-80
2022/04/30 03:01:09;;;;;;;;;;;7.90;83.30;;;;;;6220466;23;19986;-81
2022/04/30 03:03:37;;;;;;;;;;;7.90;83.50;;;;;;6195421;23;20329;-80
2022/04/30 03:06:03;;;;;;;;;;;7.90;83.10;;;;;;6169116;23;19922;-81
2022/04/30 03:08:32;;;;;;;;;;;7.80;83.10;;;;;;6194916;23;19994;-81
2022/04/30 03:11:19;;;;;;;;;;;7.80;82.90;;;;;;6210769;22;19903;-81
2022/04/30 03:13:53;;;;;;;;;;;7.80;83.90;;;;;;6221126;22;19904;-78
2022/04/30 03:21:49;;;;;;;;;;;7.60;83.90;;;;;;6219650;23;19927;-80
2022/04/30 03:24:18;;;;;;;;;;;7.50;84.70;;;;;;6194199;23;19961;-80
2022/04/30 03:26:50;;;;;;;;;;;7.50;84.40;;;;;;6195066;23;19990;-81
2022/04/30 03:29:21;;;;;;;;;;;7.50;84.50;;;;;;6194656;23;19943;-81
2022/04/30 03:31:49;;;;;;;;;;;7.50;84.90;;;;;;6195306;23;19918;-80
2022/04/30 03:34:18;;;;;;;;;;;7.80;85.30;;;;;;6195617;23;19911;-80
2022/04/30 03:36:44;;;;;;;;;;;7.50;84.60;;;;;;6194531;23;19911;-80
2022/04/30 03:39:09;;;;;;;;;;;7.70;84.20;;;;;;6194765;23;19922;-81
2022/04/30 03:41:38;;;;;;;;;;;8.20;85.30;;;;;;6220078;23;19986;-81
2022/04/30 03:44:16;;;;;;;;;;;7.60;84.40;;;;;;6194316;23;19912;-80
2022/04/30 03:46:43;;;;;;;;;;;7.60;84.40;;;;;;6196259;23;19946;-80
2022/04/30 03:49:08;;;;;;;;;;;7.60;84.30;;;;;;6197877;23;19986;-81
2022/04/30 03:51:34;;;;;;;;;;;7.60;83.80;;;;;;6198413;23;19919;-81
2022/04/30 03:54:02;;;;;;;;;;;7.60;84.40;;;;;;6198570;23;19915;-81
2022/04/30 03:56:33;;;;;;;;;;;7.60;84.10;;;;;;6203140;23;19934;-80
2022/04/30 03:59:01;;;;;;;;;;;8.00;86.10;;;;;;6198065;23;19954;-81
2022/04/30 04:01:40;;;;;;;;;;;7.60;84.00;;;;;;6198473;23;19934;-80
2022/04/30 04:04:11;;;;;;;;;;;7.60;84.40;;;;;;6196232;23;19919;-80
2022/04/30 04:06:42;;;;;;;;;;;7.60;84.60;;;;;;6195184;23;20371;-80
2022/04/30 04:09:10;;;;;;;;;;;7.60;84.70;;;;;;6195053;23;19918;-81
2022/04/30 04:11:36;;;;;;;;;;;7.70;84.30;;;;;;6219239;23;20238;-80
2022/04/30 04:19:33;;;;;;;;;;;7.70;84.20;;;;;;6218680;23;19991;-80
2022/04/30 04:22:00;;;;;;;;;;;7.70;85.10;;;;;;6209811;22;19914;-81
2022/04/30 04:27:19;;;;;;;;;;;7.70;84.70;;;;;;6264167;22;20136;-84
2022/04/30 04:33:06;;;;;;;;;;;7.90;85.50;;;;;;6247110;23;20267;-79
2022/04/30 04:35:32;;;;;;;;;;;7.80;84.80;;;;;;6222076;23;19916;-77
2022/04/30 04:38:27;;;;;;;;;;;7.90;84.80;;;;;;6247918;22;19923;-85
2022/04/30 04:41:05;;;;;;;;;;;7.80;85.10;;;;;;6204328;23;19954;-84
2022/04/30 04:44:05;;;;;;;;;;;7.80;84.80;;;;;;6193681;23;20392;-84
2022/04/30 04:46:45;;;;;;;;;;;7.80;85.50;;;;;;6217661;23;19962;-84
2022/04/30 04:49:43;;;;;;;;;;;8.10;85.80;;;;;;6197612;23;19915;-84
2022/04/30 04:52:25;;;;;;;;;;;7.80;85.80;;;;;;6221653;23;20265;-83
2022/04/30 04:58:26;;;;;;;;;;;;;;;;;;;;;
2022/04/30 05:01:01;;;;;;;;;;;7.90;85.60;;;;;;6194764;23;19915;-84
2022/04/30 05:11:06;;;;;;;;;;;;;;;;;;;;;
2022/04/30 05:14:06;;;;;;;;;;;7.60;85.50;;;;;;6219222;23;19967;-84
2022/04/30 05:16:54;;;;;;;;;;;7.60;85.70;;;;;;6197803;23;19962;-84
2022/04/30 05:19:26;;;;;;;;;;;7.60;86.50;;;;;;6194595;23;19965;-84
2022/04/30 05:22:13;;;;;;;;;;;7.60;86.50;;;;;;6195404;23;19922;-82
2022/04/30 05:40:46;;;;;;;;;;;7.90;86.10;;;;;;6199208;23;20204;-83
2022/04/30 05:47:37;;;;;;;;;;;8.20;86.50;;;;;;6159889;23;20255;-82
2022/04/30 05:50:46;;;;;;;;;;;8.00;85.60;;;;;;6135913;23;19912;-84
2022/04/30 06:04:29;;;;;;;;;;;8.70;84.50;;;;;;5845474;24;19915;-83
2022/04/30 06:11:00;;;;;;;;;;;8.60;83.40;;;;;;5953280;24;20012;-84
2022/04/30 06:21:53;;;;;;;;;;;;;;;;;;;;;
2022/04/30 06:25:40;;;;;;;;;;;8.70;83.90;;;;;;5886950;24;19915;-83
2022/04/30 06:29:02;;;;;;;;;;;;;;;;;;;;;
2022/04/30 06:51:31;;;;;;;;;;;9.30;81.20;;;;;;6174905;23;19971;-79
2022/04/30 06:57:30;;;;;;;;;;;9.40;80.00;;;;;;6186955;23;20463;-81
2022/04/30 07:03:29;;;;;;;;;;;9.00;79.10;;;;;;6215378;23;20211;-82
2022/04/30 07:06:04;;;;;;;;;;;9.30;78.70;;;;;;6190148;23;19923;-82
2022/04/30 07:08:36;;;;;;;;;;;9.70;79.00;;;;;;6189648;23;19912;-82
2022/04/30 07:11:04;;;;;;;;;;;9.40;78.90;;;;;;6189590;23;20232;-79
2022/04/30 07:13:30;;;;;;;;;;;9.40;79.00;;;;;;6189606;23;19918;-78
2022/04/30 07:15:56;;;;;;;;;;;9.60;78.80;;;;;;6189738;23;20234;-78
2022/04/30 07:18:22;;;;;;;;;;;9.50;78.80;;;;;;6189326;23;19958;-78
2022/04/30 07:20:48;;;;;;;;;;;9.50;79.00;;;;;;6188850;23;20227;-78
2022/04/30 07:23:13;;;;;;;;;;;9.50;78.00;;;;;;6214865;23;20026;-79
2022/04/30 07:25:39;;;;;;;;;;;9.60;78.00;;;;;;6214726;23;20270;-79
2022/04/30 07:28:04;;;;;;;;;;;9.60;78.10;;;;;;6190014;23;19919;-79
2022/04/30 07:30:30;;;;;;;;;;;9.60;77.40;;;;;;6189286;23;20266;-79
2022/04/30 07:32:56;;;;;;;;;;;9.60;77.70;;;;;;6214437;23;19934;-79
2022/04/30 07:35:21;;;;;;;;;;;9.60;78.10;;;;;;6189780;23;19918;-79
2022/04/30 07:37:47;;;;;;;;;;;9.70;78.20;;;;;;6189721;23;19912;-79
2022/04/30 07:40:12;;;;;;;;;;;9.70;77.80;;;;;;6188990;23;19994;-80
2022/04/30 07:42:38;;;;;;;;;;;9.70;78.40;;;;;;6189966;23;20018;-79
2022/04/30 07:45:04;;;;;;;;;;;9.70;79.20;;;;;;6220071;23;19966;-78
2022/04/30 07:47:30;;;;;;;;;;;9.60;78.70;;;;;;6237255;23;19916;-78
2022/04/30 07:49:55;;;;;;;;;;;9.70;78.70;;;;;;6217381;23;19907;-78
2022/04/30 07:52:21;;;;;;;;;;;9.60;79.00;;;;;;6193245;23;19916;-79
2022/04/30 07:54:47;;;;;;;;;;;9.60;78.70;;;;;;6189494;23;19912;-79
2022/04/30 07:57:12;;;;;;;;;;;9.60;79.00;;;;;;6189769;23;19912;-78
2022/04/30 07:59:38;;;;;;;;;;;9.60;79.80;;;;;;6188994;23;19994;-78
2022/04/30 08:02:04;;;;;;;;;;;9.60;81.30;;;;;;6189638;23;19955;-78
2022/04/30 08:04:30;;;;;;;;;;;9.70;81.70;;;;;;6214180;23;20038;-78
2022/04/30 08:06:56;;;;;;;;;;;9.80;80.80;;;;;;6189782;23;19912;-77
2022/04/30 08:09:24;;;;;;;;;;;9.80;81.80;;;;;;6189817;23;19912;-77
2022/04/30 08:11:49;;;;;;;;;;;10.10;83.00;;;;;;6214550;23;19912;-77
2022/04/30 08:14:15;;;;;;;;;;;10.20;82.50;;;;;;6188938;23;20021;-78
2022/04/30 08:16:40;;;;;;;;;;;10.20;82.90;;;;;;6189713;23;19995;-77
2022/04/30 08:19:06;;;;;;;;;;;10.40;81.20;;;;;;6189651;23;19959;-77
2022/04/30 08:21:32;;;;;;;;;;;10.50;81.60;;;;;;6189568;23;19918;-78
2022/04/30 08:23:57;;;;;;;;;;;10.60;79.70;;;;;;6190974;23;19938;-78
2022/04/30 08:26:23;;;;;;;;;;;10.60;80.40;;;;;;6191146;23;19990;-77
2022/04/30 08:28:48;;;;;;;;;;;10.60;78.40;;;;;;6191081;23;19912;-78
2022/04/30 08:31:14;;;;;;;;;;;10.60;80.60;;;;;;6191547;23;19962;-78
2022/04/30 08:33:40;;;;;;;;;;;10.50;80.90;;;;;;6215419;23;19958;-78
2022/04/30 08:36:06;;;;;;;;;;;10.50;80.00;;;;;;6191252;23;19912;-78
2022/04/30 08:38:31;;;;;;;;;;;10.50;79.40;;;;;;6191112;23;19998;-78
2022/04/30 08:40:57;;;;;;;;;;;10.40;78.00;;;;;;6191472;23;19959;-78
2022/04/30 08:43:23;;;;;;;;;;;10.30;79.60;;;;;;6191104;23;19916;-79
2022/04/30 08:45:48;;;;;;;;;;;10.30;80.40;;;;;;6190990;23;20002;-76
2022/04/30 08:48:17;;;;;;;;;;;10.30;80.50;;;;;;6191446;23;19923;-76
2022/04/30 08:50:47;;;;;;;;;;;10.30;81.40;;;;;;6191622;23;19962;-76
2022/04/30 08:53:14;;;;;;;;;;;10.20;80.10;;;;;;6191198;23;19962;-76
2022/04/30 08:55:42;;;;;;;;;;;10.20;79.40;;;;;;6215983;23;19915;-76
2022/04/30 08:58:07;;;;;;;;;;;10.10;78.60;;;;;;6191157;23;19966;-76
2022/04/30 09:00:41;;;;;;;;;;;10.00;78.70;;;;;;6219224;23;19912;-77
2022/04/30 09:03:09;;;;;;;;;;;9.90;77.30;;;;;;6196961;23;19911;-73
2022/04/30 09:05:35;;;;;;;;;;;9.80;79.40;;;;;;6203548;23;19922;-73
2022/04/30 09:08:07;;;;;;;;;;;9.80;79.20;;;;;;6196331;23;19912;-78
2022/04/30 09:10:44;;;;;;;;;;;9.70;78.50;;;;;;6189972;23;19918;-80
2022/04/30 09:13:14;;;;;;;;;;;9.80;78.20;;;;;;6191396;23;19920;-76
2022/04/30 09:15:41;;;;;;;;;;;9.70;77.40;;;;;;6191264;23;20238;-75
2022/04/30 09:18:08;;;;;;;;;;;9.90;77.80;;;;;;6190028;23;19995;-75
2022/04/30 09:20:42;;;;;;;;;;;9.80;76.80;;;;;;6216092;23;19911;-76
2022/04/30 09:23:09;;;;;;;;;;;9.80;76.80;;;;;;6190946;23;20012;-75
2022/04/30 09:25:37;;;;;;;;;;;9.90;76.90;;;;;;6215972;23;19919;-77
2022/04/30 09:28:03;;;;;;;;;;;10.00;76.20;;;;;;6215503;23;20219;-76
2022/04/30 09:30:33;;;;;;;;;;;10.00;76.20;;;;;;6215757;23;20344;-76
2022/04/30 09:33:02;;;;;;;;;;;10.20;74.60;;;;;;6215268;23;19916;-77
2022/04/30 09:38:15;;;;;;;;;;;10.10;74.10;;;;;;6215699;23;19966;-75
2022/04/30 09:40:50;;;;;;;;;;;10.00;73.80;;;;;;6216029;23;19913;-76
2022/04/30 09:43:18;;;;;;;;;;;10.20;74.10;;;;;;6190733;23;20265;-76
2022/04/30 09:45:44;;;;;;;;;;;10.20;72.70;;;;;;6215957;23;19916;-76
2022/04/30 09:53:58;;;;;;;;;;;10.70;73.80;;;;;;6215399;23;19920;-76
2022/04/30 09:56:45;;;;;;;;;;;10.60;72.10;;;;;;6216015;23;19991;-76
2022/04/30 09:59:14;;;;;;;;;;;10.90;72.50;;;;;;6243663;22;19904;-76
2022/04/30 10:01:48;;;;;;;;;;;11.00;70.70;;;;;;6243673;22;19919;-76
2022/04/30 10:04:15;;;;;;;;;;;10.90;71.00;;;;;;6212152;23;19944;-76
2022/04/30 10:06:43;;;;;;;;;;;11.10;72.00;;;;;;6190678;23;19912;-77
2022/04/30 10:09:13;;;;;;;;;;;11.10;71.00;;;;;;6215746;23;19912;-77
2022/04/30 10:11:54;;;;;;;;;;;11.20;70.40;;;;;;6214708;23;19919;-76
2022/04/30 10:14:45;;;;;;;;;;;11.10;71.30;;;;;;6214172;23;19951;-76
2022/04/30 10:17:20;;;;;;;;;;;11.30;71.50;;;;;;6223735;23;19961;-76
2022/04/30 10:19:58;;;;;;;;;;;11.40;71.50;;;;;;6200791;23;19962;-73
2022/04/30 10:22:24;;;;;;;;;;;11.50;69.90;;;;;;6226787;23;19942;-74
2022/04/30 10:24:52;;;;;;;;;;;11.50;71.30;;;;;;6190420;23;20235;-75
2022/04/30 10:27:18;;;;;;;;;;;11.40;69.60;;;;;;6190066;23;20311;-76
2022/04/30 10:29:56;;;;;;;;;;;11.40;71.90;;;;;;6215378;23;19926;-77
2022/04/30 10:32:29;;;;;;;;;;;11.30;70.90;;;;;;6214317;23;19958;-76
2022/04/30 10:35:04;;;;;;;;;;;11.10;70.50;;;;;;6190234;23;20303;-76
2022/04/30 10:37:30;;;;;;;;;;;10.80;72.60;;;;;;6190533;23;19912;-76
2022/04/30 10:39:57;;;;;;;;;;;10.70;74.70;;;;;;6189945;23;19994;-76
2022/04/30 10:42:39;;;;;;;;;;;10.50;74.90;;;;;;6189975;23;20311;-76
2022/04/30 10:45:09;;;;;;;;;;;10.50;75.20;;;;;;6215077;23;19912;-76
2022/04/30 10:47:47;;;;;;;;;;;10.40;75.60;;;;;;6189813;23;20323;-75
2022/04/30 10:50:16;;;;;;;;;;;10.40;74.50;;;;;;6189262;23;19912;-76
2022/04/30 10:52:48;;;;;;;;;;;10.40;75.50;;;;;;6189323;23;19994;-75
2022/04/30 10:55:14;;;;;;;;;;;10.60;74.60;;;;;;6189984;23;19936;-76
2022/04/30 10:57:43;;;;;;;;;;;10.60;74.20;;;;;;6189382;23;19919;-76
2022/04/30 11:00:09;;;;;;;;;;;10.50;73.40;;;;;;6189812;23;20381;-76
2022/04/30 11:02:35;;;;;;;;;;;10.60;73.10;;;;;;6214256;23;19944;-76
2022/04/30 11:05:04;;;;;;;;;;;10.70;73.90;;;;;;6215034;23;19919;-77
2022/04/30 11:07:52;;;;;;;;;;;10.70;73.80;;;;;;6190124;23;19986;-77
2022/04/30 11:10:18;;;;;;;;;;;11.00;73.40;;;;;;6189628;23;19918;-75
2022/04/30 11:12:47;;;;;;;;;;;10.80;74.50;;;;;;6189707;23;19912;-76
2022/04/30 11:15:14;;;;;;;;;;;10.80;74.70;;;;;;6215303;23;19967;-78
2022/04/30 11:17:49;;;;;;;;;;;10.70;74.30;;;;;;6189965;23;19912;-77
2022/04/30 11:20:22;;;;;;;;;;;10.70;76.20;;;;;;6164640;23;19919;-77
2022/04/30 11:22:56;;;;;;;;;;;10.60;75.80;;;;;;6194147;23;19912;-76
2022/04/30 11:25:23;;;;;;;;;;;10.40;75.10;;;;;;6194506;23;20344;-77
2022/04/30 11:27:58;;;;;;;;;;;10.20;75.90;;;;;;6194900;23;19919;-77
2022/04/30 11:30:24;;;;;;;;;;;10.10;75.80;;;;;;6195103;23;19981;-76
2022/04/30 11:32:53;;;;;;;;;;;10.00;77.90;;;;;;6224456;23;20377;-76
2022/04/30 11:35:19;;;;;;;;;;;9.90;78.90;;;;;;6225797;23;20026;-74
2022/04/30 11:37:50;;;;;;;;;;;9.80;80.40;;;;;;6231372;23;19912;-75
2022/04/30 11:40:16;;;;;;;;;;;9.60;79.70;;;;;;6200095;23;19915;-76
2022/04/30 11:42:53;;;;;;;;;;;9.50;81.80;;;;;;6193903;23;19911;-77
2022/04/30 11:45:34;;;;;;;;;;;9.40;81.20;;;;;;6218003;23;19916;-78
2022/04/30 11:48:00;;;;;;;;;;;9.40;81.40;;;;;;6195008;23;19918;-79
2022/04/30 11:50:27;;;;;;;;;;;9.60;81.80;;;;;;6194930;23;19912;-81
2022/04/30 11:52:53;;;;;;;;;;;9.80;82.60;;;;;;6189615;23;19916;-77
2022/04/30 11:55:22;;;;;;;;;;;9.80;81.80;;;;;;6189721;23;19951;-79
2022/04/30 11:58:05;;;;;;;;;;;9.80;81.60;;;;;;6212769;23;19982;-80
2022/04/30 12:00:33;;;;;;;;;;;9.80;82.30;;;;;;6214313;23;19912;-79
2022/04/30 12:02:59;;;;;;;;;;;10.00;83.90;;;;;;6212765;23;19991;-78
2022/04/30 12:05:24;;;;;;;;;;;10.10;83.50;;;;;;6189841;23;19915;-79
2022/04/30 12:07:52;;;;;;;;;;;10.10;79.30;;;;;;6190066;23;19951;-79
2022/04/30 12:10:26;;;;;;;;;;;10.00;79.00;;;;;;6187174;23;19911;-79
2022/04/30 12:12:53;;;;;;;;;;;10.10;79.00;;;;;;6188941;23;19990;-79
2022/04/30 12:15:21;;;;;;;;;;;10.30;79.10;;;;;;6189386;23;19912;-79
2022/04/30 12:26:58;;;;;;;;;;;10.70;76.20;;;;;;6215167;23;19912;-80
2022/04/30 12:29:27;;;;;;;;;;;11.00;78.00;;;;;;6189604;23;19978;-81
2022/04/30 12:31:56;;;;;;;;;;;11.10;76.20;;;;;;6189571;23;20318;-79
2022/04/30 12:34:25;;;;;;;;;;;11.40;76.00;;;;;;6214200;23;19912;-79
2022/04/30 12:36:52;;;;;;;;;;;11.30;74.40;;;;;;6189672;23;19919;-79
2022/04/30 12:39:18;;;;;;;;;;;11.30;75.70;;;;;;6189772;23;20341;-79
2022/04/30 12:41:51;;;;;;;;;;;11.70;72.50;;;;;;6214680;23;19982;-80
2022/04/30 12:44:19;;;;;;;;;;;11.90;72.70;;;;;;6189396;23;19998;-79
2022/04/30 12:46:47;;;;;;;;;;;12.10;71.20;;;;;;6190244;23;19916;-79
2022/04/30 12:49:13;;;;;;;;;;;12.30;71.90;;;;;;6175108;23;19911;-79
2022/04/30 12:51:39;;;;;;;;;;;12.40;68.90;;;;;;6203921;23;19922;-79
2022/04/30 12:54:11;;;;;;;;;;;12.40;69.10;;;;;;6213555;22;19911;-78
2022/04/30 12:56:41;;;;;;;;;;;12.50;70.00;;;;;;6240416;23;19928;-79
2022/04/30 12:59:10;;;;;;;;;;;12.30;70.00;;;;;;6189220;23;19963;-79
2022/04/30 13:01:40;;;;;;;;;;;12.30;69.60;;;;;;6165120;23;19971;-79
2022/04/30 13:04:06;;;;;;;;;;;12.30;65.30;;;;;;6189267;23;20294;-80
2022/04/30 13:06:32;;;;;;;;;;;12.20;66.40;;;;;;6164834;23;19919;-79
2022/04/30 13:14:26;;;;;;;;;;;12.10;63.00;;;;;;6215604;23;19979;-79
2022/04/30 13:16:52;;;;;;;;;;;11.90;65.10;;;;;;6190900;23;19934;-80
2022/04/30 13:19:18;;;;;;;;;;;11.90;65.80;;;;;;6190908;23;20322;-80
2022/04/30 13:21:49;;;;;;;;;;;11.90;65.50;;;;;;6191263;23;19986;-79
2022/04/30 13:24:18;;;;;;;;;;;11.90;64.30;;;;;;6190911;23;19995;-77
2022/04/30 13:26:47;;;;;;;;;;;11.70;65.20;;;;;;6216652;23;19911;-80
2022/04/30 13:29:16;;;;;;;;;;;11.60;65.60;;;;;;6191351;23;19934;-80
2022/04/30 13:31:42;;;;;;;;;;;11.80;64.20;;;;;;6189962;23;20304;-78
2022/04/30 13:34:11;;;;;;;;;;;11.50;64.90;;;;;;6190931;23;20039;-81
2022/04/30 13:36:37;;;;;;;;;;;11.50;65.60;;;;;;6192416;23;19912;-79
2022/04/30 13:39:03;;;;;;;;;;;11.50;65.50;;;;;;6191447;23;19919;-80
2022/04/30 13:41:30;;;;;;;;;;;11.50;65.30;;;;;;6215375;23;19919;-79
2022/04/30 13:43:56;;;;;;;;;;;11.60;66.10;;;;;;6190738;23;19937;-80
2022/04/30 13:46:22;;;;;;;;;;;11.60;64.70;;;;;;6215674;23;20220;-80
2022/04/30 13:48:54;;;;;;;;;;;11.60;65.10;;;;;;6191072;23;19956;-77
2022/04/30 13:51:23;;;;;;;;;;;11.60;65.80;;;;;;6190888;23;20299;-80
2022/04/30 13:53:48;;;;;;;;;;;11.60;65.00;;;;;;6191172;23;19912;-81
2022/04/30 13:56:15;;;;;;;;;;;11.70;64.90;;;;;;6189967;23;19966;-79
2022/04/30 13:58:41;;;;;;;;;;;11.70;63.90;;;;;;6215934;23;19922;-79
2022/04/30 14:01:07;;;;;;;;;;;11.70;64.00;;;;;;6165519;23;20034;-79
2022/04/30 14:03:33;;;;;;;;;;;11.80;63.60;;;;;;6191018;23;19912;-80
2022/04/30 14:06:01;;;;;;;;;;;11.70;63.80;;;;;;6192449;23;19951;-81
2022/04/30 14:08:27;;;;;;;;;;;11.80;65.60;;;;;;6205028;23;19912;-81
2022/04/30 14:10:52;;;;;;;;;;;11.90;65.30;;;;;;6211311;22;19939;-73
2022/04/30 14:16:05;;;;;;;;;;;11.90;62.90;;;;;;6225920;23;19919;-78
2022/04/30 14:18:33;;;;;;;;;;;11.90;61.40;;;;;;6218288;23;19922;-79
2022/04/30 14:21:03;;;;;;;;;;;11.90;62.70;;;;;;6190859;23;19912;-77
2022/04/30 14:23:35;;;;;;;;;;;11.90;62.00;;;;;;6191190;23;19911;-78
2022/04/30 14:26:02;;;;;;;;;;;11.90;63.50;;;;;;6189467;23;19912;-78
2022/04/30 14:28:27;;;;;;;;;;;11.90;63.80;;;;;;6216273;23;19916;-77
2022/04/30 14:31:04;;;;;;;;;;;11.80;63.80;;;;;;6191908;23;20319;-82
2022/04/30 14:33:53;;;;;;;;;;;11.80;64.60;;;;;;6190843;23;19983;-80
2022/04/30 14:36:33;;;;;;;;;;;11.50;65.60;;;;;;6189782;23;19912;-84
2022/04/30 14:49:42;;;;;;;;;;;11.20;67.80;;;;;;6182861;23;19912;-79
2022/04/30 15:02:31;;;;;;;;;;;11.10;66.60;;;;;;6022399;23;20295;-78
2022/04/30 15:05:29;;;;;;;;;;;11.00;66.10;;;;;;5990297;23;19937;-78
2022/04/30 15:08:21;;;;;;;;;;;11.00;66.60;;;;;;5964972;23;19925;-78
2022/04/30 15:11:12;;;;;;;;;;;11.00;67.00;;;;;;6001632;23;19918;-78
2022/04/30 15:13:46;;;;;;;;;;;11.20;66.60;;;;;;5989597;23;19914;-78
2022/04/30 15:16:34;;;;;;;;;;;10.90;67.00;;;;;;6015716;23;19946;-78
2022/04/30 15:19:05;;;;;;;;;;;10.90;67.00;;;;;;5998811;23;19970;-78
2022/04/30 15:22:21;;;;;;;;;;;10.90;67.80;;;;;;6073662;23;20307;-78
2022/04/30 15:25:00;;;;;;;;;;;10.80;67.20;;;;;;6050731;23;20256;-78
2022/04/30 15:27:45;;;;;;;;;;;10.80;68.10;;;;;;6075289;23;20000;-78
2022/04/30 15:33:26;;;;;;;;;;;10.90;69.50;;;;;;6074466;23;20259;-78
2022/04/30 15:36:16;;;;;;;;;;;10.90;69.60;;;;;;6070308;23;19917;-78
2022/04/30 15:39:02;;;;;;;;;;;;;;;;;;;;;
2022/04/30 15:52:25;;;;;;;;;;;10.80;65.10;;;;;;5958297;24;20026;-74
2022/04/30 15:55:15;;;;;;;;;;;;;;;;;;;;;
2022/04/30 15:58:53;;;;;;;;;;;;;;;;;;;;;
2022/04/30 16:01:45;;;;;;;;;;;;;;;;;;;;;
2022/04/30 16:04:47;;;;;;;;;;;10.90;66.80;;;;;;6069328;23;19945;-77
2022/04/30 16:15:44;;;;;;;;;;;10.90;67.30;;;;;;6057369;23;19912;-78
2022/04/30 16:21:12;;;;;;;;;;;11.00;66.60;;;;;;6009922;23;19917;-78
2022/04/30 16:23:53;;;;;;;;;;;11.00;67.80;;;;;;6183512;23;19920;-77
2022/04/30 16:26:45;;;;;;;;;;;;;;;;;;;;;
2022/04/30 16:29:44;;;;;;;;;;;10.90;67.20;;;;;;6177346;23;20231;-78
2022/04/30 16:39:35;;;;;;;;;;;10.80;67.50;;;;;;6177261;23;19917;-79
2022/04/30 16:42:27;;;;;;;;;;;;;;;;;;;;;
2022/04/30 16:45:28;;;;;;;;;;;10.80;66.80;;;;;;6105612;23;20378;-78
2022/04/30 16:48:22;;;;;;;;;;;;;;;;;;;;;
2022/04/30 16:57:11;;;;;;;;;;;10.60;67.70;;;;;;6046776;23;19918;-78
2022/04/30 17:00:32;;;;;;;;;;;;;;;;;;;;;
2022/04/30 17:03:00;;;;;;;;;;;10.60;69.30;;;;;;6075510;23;20407;-78
2022/04/30 17:05:43;;;;;;;;;;;10.60;69.00;;;;;;6123491;23;19917;-79
2022/04/30 17:08:34;;;;;;;;;;;10.60;68.80;;;;;;6063273;23;19913;-78
2022/04/30 17:14:15;;;;;;;;;;;10.60;67.10;;;;;;6108137;23;19913;-73
2022/04/30 17:16:58;;;;;;;;;;;10.50;67.60;;;;;;6064893;23;19918;-78
2022/04/30 17:19:38;;;;;;;;;;;10.50;67.90;;;;;;6045112;23;19920;-78
2022/04/30 17:22:15;;;;;;;;;;;10.50;67.70;;;;;;6019948;23;19923;-78
2022/04/30 17:27:56;;;;;;;;;;;10.50;68.20;;;;;;6066711;23;19912;-78
2022/04/30 17:40:14;;;;;;;;;;;10.30;68.70;;;;;;6129446;23;20239;-78
2022/04/30 17:43:28;;;;;;;;;;;;;;;;;;;;;
2022/04/30 17:49:39;;;;;;;;;;;10.20;70.30;;;;;;6179286;23;19920;-78
2022/04/30 17:52:21;;;;;;;;;;;10.10;71.30;;;;;;6185089;23;19912;-78
2022/04/30 17:55:03;;;;;;;;;;;10.20;71.80;;;;;;6134084;23;19919;-79
2022/04/30 17:58:20;;;;;;;;;;;10.10;72.00;;;;;;6157316;23;19916;-79
2022/04/30 18:00:51;;;;;;;;;;;10.00;72.90;;;;;;6154378;23;20001;-79
2022/04/30 18:03:52;;;;;;;;;;;9.90;73.60;;;;;;6106663;23;19913;-79
2022/04/30 18:06:23;;;;;;;;;;;10.00;74.10;;;;;;6103510;23;19913;-79
2022/04/30 18:08:54;;;;;;;;;;;9.90;74.10;;;;;;6104730;23;19935;-80
2022/04/30 18:11:30;;;;;;;;;;;9.90;74.70;;;;;;6103797;23;19912;-78
2022/04/30 18:14:06;;;;;;;;;;;9.90;73.80;;;;;;6104242;23;19921;-80
2022/04/30 18:17:00;;;;;;;;;;;9.90;74.60;;;;;;6106398;23;19975;-79
2022/04/30 18:19:46;;;;;;;;;;;9.80;74.40;;;;;;6073804;23;19921;-80
2022/04/30 18:22:28;;;;;;;;;;;;;;;;;;;;;
2022/04/30 18:24:58;;;;;;;;;;;10.00;74.00;;;;;;6114684;23;20244;-79
2022/04/30 18:27:44;;;;;;;;;;;9.80;74.00;;;;;;6104895;23;19995;-79
2022/04/30 18:30:35;;;;;;;;;;;9.80;73.50;;;;;;6156336;23;20258;-78
2022/04/30 18:33:06;;;;;;;;;;;9.80;73.70;;;;;;6145638;23;19943;-75
2022/04/30 18:35:54;;;;;;;;;;;9.80;73.90;;;;;;6159192;23;19921;-77
2022/04/30 18:38:28;;;;;;;;;;;9.70;74.40;;;;;;6108727;23;19916;-78
2022/04/30 18:41:00;;;;;;;;;;;9.70;75.00;;;;;;6105868;23;19917;-77
2022/04/30 18:43:29;;;;;;;;;;;9.70;74.50;;;;;;6105277;23;19940;-78
2022/04/30 18:46:20;;;;;;;;;;;9.60;75.10;;;;;;6102938;23;20350;-79